createdAt,value
2018-06-04T00:00:17.322Z,17.40
2018-06-04T00:02:46.049Z,17.20
2018-06-04T00:05:14.839Z,17.30
2018-06-04T00:07:44.446Z,17.20
2018-06-04T00:10:12.892Z,17.20
2018-06-04T00:12:42.603Z,17.20
2018-06-04T00:15:11.596Z,17.20
2018-06-04T00:17:39.998Z,17.20
2018-06-04T00:20:08.813Z,17.20
2018-06-04T00:22:37.745Z,17.20
2018-06-04T00:25:06.198Z,17.20
2018-06-04T00:27:34.925Z,17.10
2018-06-04T00:43:03.408Z,17.10
2018-06-04T00:45:32.125Z,16.70
2018-06-04T00:48:01.153Z,16.70
2018-06-04T00:50:29.599Z,16.70
2018-06-04T00:52:59.805Z,16.70
2018-06-04T00:55:29.139Z,16.70
2018-06-04T00:57:57.569Z,16.70
2018-06-04T01:00:26.374Z,16.70
2018-06-04T01:02:54.798Z,16.70
2018-06-04T01:05:24.033Z,16.70
2018-06-04T01:07:52.501Z,16.70
2018-06-04T01:10:21.361Z,16.60
2018-06-04T01:12:50.130Z,16.60
2018-06-04T01:15:18.947Z,16.60
2018-06-04T01:17:48.186Z,16.60
2018-06-04T01:20:16.958Z,16.50
2018-06-04T01:22:46.906Z,16.50
2018-06-04T01:25:15.688Z,16.40
2018-06-04T01:27:44.605Z,16.40
2018-06-04T01:30:13.354Z,16.30
2018-06-04T01:32:41.949Z,16.30
2018-06-04T01:35:10.901Z,16.20
2018-06-04T01:37:39.353Z,16.20
2018-06-04T01:40:08.169Z,16.20
2018-06-04T01:42:36.656Z,16.30
2018-06-04T01:45:05.086Z,16.30
2018-06-04T01:47:33.506Z,16.30
2018-06-04T01:50:02.675Z,16.30
2018-06-04T01:52:31.589Z,16.30
2018-06-04T01:55:00.602Z,16.20
2018-06-04T01:57:29.341Z,16.20
2018-06-04T01:59:57.785Z,16.20
2018-06-04T02:02:26.553Z,16.10
2018-06-04T02:04:55.533Z,16.10
2018-06-04T02:07:24.539Z,16.10
2018-06-04T02:10:00.911Z,16.00
2018-06-04T02:12:29.367Z,16.00
2018-06-04T02:14:58.137Z,16.00
2018-06-04T02:17:26.998Z,16.00
2018-06-04T02:19:55.766Z,16.00
2018-06-04T02:22:25.493Z,16.00
2018-06-04T02:24:54.865Z,16.00
2018-06-04T02:27:24.154Z,16.00
2018-06-04T02:29:52.613Z,16.00
2018-06-04T02:32:21.022Z,16.00
2018-06-04T02:34:49.439Z,15.90
2018-06-04T02:50:18.750Z,15.90
2018-06-04T02:52:47.269Z,15.60
2018-06-04T02:55:15.799Z,15.60
2018-06-04T02:57:44.825Z,15.60
2018-06-04T03:00:13.980Z,15.60
2018-06-04T03:02:44.379Z,15.60
2018-06-04T03:07:41.871Z,15.60
2018-06-04T03:10:11.447Z,15.60
2018-06-04T03:12:41.414Z,15.60
2018-06-04T03:15:10.217Z,15.60
2018-06-04T03:17:38.870Z,15.60
2018-06-04T03:20:07.329Z,15.60
2018-06-04T03:32:21.837Z,15.60
2018-06-04T03:34:51.871Z,15.60
2018-06-04T03:37:21.368Z,15.60
2018-06-04T03:39:52.080Z,15.60
2018-06-04T03:42:21.687Z,15.70
2018-06-04T03:44:50.783Z,15.70
2018-06-04T03:47:19.464Z,15.80
2018-06-04T03:49:48.979Z,15.90
2018-06-04T03:52:17.895Z,15.90
2018-06-04T03:54:48.168Z,16.00
2018-06-04T03:57:17.660Z,16.10
2018-06-04T03:59:46.252Z,16.20
2018-06-04T04:02:14.996Z,16.60
2018-06-04T04:04:43.494Z,17.00
2018-06-04T04:07:12.728Z,17.60
2018-06-04T04:09:41.937Z,18.20
2018-06-04T04:14:41.193Z,19.30
2018-06-04T04:17:10.968Z,19.80
2018-06-04T04:19:39.750Z,20.30
2018-06-04T04:22:09.466Z,20.70
2018-06-04T04:24:38.590Z,21.20
2018-06-04T04:27:07.214Z,21.70
2018-06-04T04:29:37.033Z,22.10
2018-06-04T04:32:05.977Z,22.60
2018-06-04T04:34:35.562Z,23.10
2018-06-04T04:37:05.042Z,23.60
2018-06-04T04:39:34.297Z,24.20
2018-06-04T04:42:03.716Z,24.70
2018-06-04T04:44:33.699Z,25.20
2018-06-04T04:47:02.533Z,25.60
2018-06-04T04:49:31.559Z,26.00
2018-06-04T04:52:01.049Z,26.40
2018-06-04T04:54:30.484Z,26.80
2018-06-04T04:56:59.862Z,27.20
2018-06-04T04:59:28.665Z,27.60
2018-06-04T05:01:57.755Z,28.10
2018-06-04T05:04:26.810Z,28.60
2018-06-04T05:06:55.837Z,29.00
2018-06-04T05:09:25.293Z,29.00
2018-06-04T05:11:54.425Z,29.10
2018-06-04T05:14:23.893Z,29.00
2018-06-04T05:16:53.816Z,29.00
2018-06-04T05:19:23.332Z,28.90
2018-06-04T05:21:53.953Z,29.00
2018-06-04T05:24:24.124Z,29.20
2018-06-04T05:26:53.592Z,29.40
2018-06-04T05:29:22.927Z,29.60
2018-06-04T05:31:52.038Z,29.90
2018-06-04T05:34:21.867Z,30.10
2018-06-04T05:36:52.751Z,30.40
2018-06-04T05:39:23.143Z,30.70
2018-06-04T05:41:53.905Z,30.80
2018-06-04T05:44:23.190Z,30.80
2018-06-04T05:46:52.373Z,30.80
2018-06-04T05:49:22.535Z,30.90
2018-06-04T05:51:52.309Z,30.90
2018-06-04T05:54:21.996Z,31.20
2018-06-04T05:56:51.445Z,31.50
2018-06-04T05:59:21.279Z,31.80
2018-06-04T06:01:51.472Z,32.10
2018-06-04T06:04:20.882Z,32.30
2018-06-04T06:06:51.416Z,32.50
2018-06-04T06:09:21.117Z,32.40
2018-06-04T06:11:51.088Z,32.40
2018-06-04T06:16:49.371Z,32.90
2018-06-04T06:19:18.706Z,33.30
2018-06-04T06:21:47.897Z,33.60
2018-06-04T06:24:17.406Z,33.80
2018-06-04T06:26:46.884Z,34.20
2018-06-04T06:29:16.344Z,34.40
2018-06-04T06:31:45.582Z,34.60
2018-06-04T06:34:14.921Z,34.90
2018-06-04T06:36:43.706Z,35.20
2018-06-04T06:39:12.827Z,35.60
2018-06-04T06:41:41.945Z,36.30
2018-06-04T06:44:10.797Z,36.50
2018-06-04T06:46:39.332Z,36.80
2018-06-04T06:49:10.038Z,37.00
2018-06-04T06:51:38.811Z,37.10
2018-06-04T06:54:07.423Z,37.30
2018-06-04T06:56:37.708Z,37.40
2018-06-04T06:59:06.212Z,37.70
2018-06-04T07:01:35.997Z,37.60
2018-06-04T07:04:04.786Z,37.50
2018-06-04T07:06:34.915Z,37.40
2018-06-04T07:09:03.655Z,37.20
2018-06-04T07:11:32.184Z,37.00
2018-06-04T07:14:01.106Z,37.10
2018-06-04T07:16:29.562Z,37.30
2018-06-04T07:18:58.451Z,37.80
2018-06-04T07:21:27.272Z,38.10
2018-06-04T07:23:55.786Z,38.50
2018-06-04T07:26:24.668Z,38.30
2018-06-04T07:28:53.085Z,38.00
2018-06-04T07:31:21.882Z,37.90
2018-06-04T07:36:18.794Z,38.00
2018-06-04T07:38:47.290Z,38.20
2018-06-04T07:41:16.671Z,38.60
2018-06-04T07:43:45.663Z,39.10
2018-06-04T07:46:15.093Z,39.50
2018-06-04T07:48:43.849Z,39.40
2018-06-04T07:51:12.343Z,39.30
2018-06-04T07:53:40.817Z,38.90
2018-06-04T07:56:09.335Z,38.50
2018-06-04T07:58:38.197Z,38.30
2018-06-04T08:01:07.152Z,38.00
2018-06-04T08:03:35.808Z,37.80
2018-06-04T08:06:04.291Z,38.00
2018-06-04T08:11:01.834Z,38.10
2018-06-04T08:13:30.619Z,38.20
2018-06-04T08:15:59.411Z,38.00
2018-06-04T08:18:27.940Z,37.80
2018-06-04T08:34:01.603Z,37.60
2018-06-04T08:36:30.019Z,38.20
2018-06-04T08:38:58.477Z,38.10
2018-06-04T08:41:26.905Z,38.00
2018-06-04T08:43:55.384Z,37.80
2018-06-04T08:46:23.786Z,37.20
2018-06-04T08:48:52.415Z,37.20
2018-06-04T08:51:21.231Z,37.10
2018-06-04T08:53:50.003Z,36.80
2018-06-04T09:09:18.479Z,36.90
2018-06-04T09:11:47.060Z,36.20
2018-06-04T09:14:15.713Z,36.10
2018-06-04T09:16:44.343Z,36.20
2018-06-04T09:19:12.857Z,36.60
2018-06-04T09:21:41.527Z,37.20
2018-06-04T09:24:10.111Z,37.70
2018-06-04T09:26:39.114Z,37.60
2018-06-04T09:29:07.560Z,38.10
2018-06-04T09:31:36.133Z,38.10
2018-06-04T09:34:04.643Z,37.60
2018-06-04T09:36:34.629Z,37.40
2018-06-04T09:39:05.506Z,37.70
2018-06-04T09:41:36.873Z,38.40
2018-06-04T09:44:06.721Z,38.10
2018-06-04T09:46:35.749Z,38.00
2018-06-04T09:49:05.255Z,38.20
2018-06-04T09:51:34.550Z,38.50
2018-06-04T09:54:04.159Z,39.20
2018-06-04T09:56:35.445Z,39.20
2018-06-04T09:59:05.028Z,39.20
2018-06-04T10:01:34.640Z,39.50
2018-06-04T10:04:03.256Z,39.70
2018-06-04T10:06:32.506Z,39.30
2018-06-04T10:09:01.372Z,38.80
2018-06-04T10:11:30.663Z,38.40
2018-06-04T10:13:59.775Z,38.60
2018-06-04T10:16:29.039Z,39.30
2018-06-04T10:18:58.257Z,40.00
2018-06-04T10:21:27.431Z,40.40
2018-06-04T10:23:56.327Z,41.00
2018-06-04T10:26:27.786Z,41.20
2018-06-04T10:28:56.898Z,40.80
2018-06-04T10:31:26.037Z,40.90
2018-06-04T10:33:55.279Z,40.70
2018-06-04T10:36:24.368Z,40.60
2018-06-04T10:38:53.798Z,40.80
2018-06-04T10:41:23.120Z,40.00
2018-06-04T10:43:53.105Z,39.60
2018-06-04T10:46:22.262Z,38.90
2018-06-04T10:48:52.046Z,37.50
2018-06-04T10:51:21.777Z,36.80
2018-06-04T10:53:51.685Z,37.20
2018-06-04T10:56:20.426Z,37.10
2018-06-04T10:58:49.224Z,36.30
2018-06-04T11:01:18.309Z,35.20
2018-06-04T11:03:47.851Z,34.60
2018-06-04T11:06:17.594Z,34.30
2018-06-04T11:08:46.765Z,34.30
2018-06-04T11:11:16.594Z,34.30
2018-06-04T11:16:15.033Z,34.00
2018-06-04T11:18:44.276Z,33.70
2018-06-04T11:21:13.425Z,33.00
2018-06-04T11:23:42.654Z,32.10
2018-06-04T11:26:11.953Z,31.90
2018-06-04T11:28:41.058Z,32.00
2018-06-04T11:31:10.275Z,32.10
2018-06-04T11:33:40.542Z,32.20
2018-06-04T11:36:09.998Z,31.80
2018-06-04T11:38:38.960Z,31.30
2018-06-04T11:41:08.505Z,30.70
2018-06-04T11:43:37.878Z,30.40
2018-06-04T11:46:07.238Z,30.40
2018-06-04T11:48:37.101Z,30.70
2018-06-04T11:51:05.827Z,30.80
2018-06-04T11:53:34.554Z,30.80
2018-06-04T11:56:03.301Z,30.50
2018-06-04T11:58:32.014Z,30.20
2018-06-04T12:01:00.658Z,30.30
2018-06-04T12:03:30.713Z,30.50
2018-06-04T12:05:59.255Z,30.80
2018-06-04T12:08:28.157Z,31.10
2018-06-04T12:10:57.048Z,31.20
2018-06-04T12:13:25.474Z,30.90
2018-06-04T12:15:54.364Z,30.60
2018-06-04T12:18:23.240Z,30.20
2018-06-04T12:23:22.301Z,30.00
2018-06-04T12:25:51.159Z,30.20
2018-06-04T12:28:19.796Z,30.30
2018-06-04T12:30:49.504Z,30.70
2018-06-04T12:33:18.775Z,31.00
2018-06-04T12:35:47.351Z,30.90
2018-06-04T12:38:16.716Z,30.80
2018-06-04T12:40:47.396Z,30.50
2018-06-04T12:43:16.578Z,30.40
2018-06-04T12:45:45.000Z,30.60
2018-06-04T12:48:14.137Z,30.70
2018-06-04T12:50:42.921Z,31.00
2018-06-04T12:53:11.334Z,31.20
2018-06-04T12:55:40.900Z,31.20
2018-06-04T12:58:11.272Z,31.00
2018-06-04T13:00:40.037Z,30.80
2018-06-04T13:03:08.824Z,30.60
2018-06-04T13:05:38.042Z,30.40
2018-06-04T13:08:06.717Z,29.90
2018-06-04T13:10:35.144Z,29.50
2018-06-04T13:13:04.596Z,29.30
2018-06-04T13:15:34.174Z,29.30
2018-06-04T13:18:02.922Z,29.50
2018-06-04T13:20:31.392Z,29.70
2018-06-04T13:22:59.842Z,29.70
2018-06-04T13:25:28.312Z,29.60
2018-06-04T13:27:56.783Z,29.40
2018-06-04T13:30:25.228Z,29.30
2018-06-04T13:32:53.962Z,29.30
2018-06-04T13:35:22.560Z,29.40
2018-06-04T13:37:52.032Z,29.50
2018-06-04T13:40:20.711Z,29.80
2018-06-04T13:42:49.133Z,30.00
2018-06-04T13:45:17.679Z,30.00
2018-06-04T13:47:46.088Z,30.00
2018-06-04T13:50:14.544Z,29.80
2018-06-04T13:52:43.375Z,29.60
2018-06-04T13:55:11.770Z,29.30
2018-06-04T13:57:40.322Z,29.20
2018-06-04T14:00:08.768Z,29.30
2018-06-04T14:02:38.207Z,29.50
2018-06-04T14:05:06.652Z,29.70
2018-06-04T14:07:35.784Z,29.80
2018-06-04T14:10:04.628Z,30.00
2018-06-04T14:12:33.131Z,30.20
2018-06-04T14:15:01.596Z,30.10
2018-06-04T14:17:30.527Z,30.20
2018-06-04T14:19:58.941Z,30.20
2018-06-04T14:22:27.986Z,29.70
2018-06-04T14:24:56.850Z,29.40
2018-06-04T14:27:25.272Z,29.10
2018-06-04T14:29:54.011Z,29.00
2018-06-04T14:32:23.092Z,28.80
2018-06-04T14:34:52.193Z,28.80
2018-06-04T14:37:21.276Z,28.80
2018-06-04T14:52:55.521Z,28.80
2018-06-04T14:55:25.253Z,28.40
2018-06-04T15:00:22.269Z,28.50
2018-06-04T15:02:51.016Z,28.70
2018-06-04T15:05:19.481Z,28.80
2018-06-04T15:07:48.522Z,28.80
2018-06-04T15:10:17.346Z,28.80
2018-06-04T15:12:45.958Z,28.60
2018-06-04T15:15:14.810Z,28.50
2018-06-04T15:17:43.309Z,28.30
2018-06-04T15:20:12.059Z,28.00
2018-06-04T15:22:40.877Z,27.80
2018-06-04T15:25:10.064Z,27.70
2018-06-04T15:27:39.622Z,27.70
2018-06-04T15:30:08.186Z,27.80
2018-06-04T15:45:41.858Z,27.80
2018-06-04T15:48:10.373Z,27.70
2018-06-04T15:50:39.501Z,27.80
2018-06-04T15:53:08.576Z,27.90
2018-06-04T15:55:38.163Z,28.20
2018-06-04T15:58:07.916Z,28.20
2018-06-04T16:00:36.376Z,28.00
2018-06-04T16:03:04.790Z,27.90
2018-06-04T16:05:34.536Z,27.80
2018-06-04T16:08:03.374Z,27.60
2018-06-04T16:10:31.833Z,27.60
2018-06-04T16:13:00.275Z,27.50
2018-06-04T16:15:29.162Z,27.50
2018-06-04T16:17:57.696Z,27.50
2018-06-04T16:45:17.786Z,26.30
2018-06-04T16:47:47.122Z,26.30
2018-06-04T16:50:16.580Z,26.20
2018-06-04T16:52:44.997Z,26.10
2018-06-04T16:55:14.165Z,26.20
2018-06-04T16:57:43.295Z,26.20
2018-06-04T17:00:11.745Z,26.20
2018-06-04T17:02:41.096Z,26.10
2018-06-04T17:17:24.273Z,26.10
2018-06-04T17:19:53.083Z,25.70
2018-06-04T17:22:21.592Z,25.70
2018-06-04T17:24:50.074Z,25.70
2018-06-04T17:27:18.573Z,25.70
2018-06-04T17:29:47.975Z,25.60
2018-06-04T17:32:16.868Z,25.70
2018-06-04T17:34:45.477Z,25.70
2018-06-04T17:37:14.713Z,25.70
2018-06-04T17:39:43.690Z,25.80
2018-06-04T17:42:12.746Z,25.90
2018-06-04T17:44:42.109Z,25.80
2018-06-04T17:47:11.665Z,25.80
2018-06-04T17:49:41.183Z,25.70
2018-06-04T17:52:09.701Z,25.60
2018-06-04T17:54:38.936Z,25.50
2018-06-04T17:57:07.909Z,25.50
2018-06-04T17:59:37.380Z,25.40
2018-06-04T18:02:06.842Z,25.30
2018-06-04T18:04:37.493Z,25.20
2018-06-04T18:07:06.505Z,25.10
2018-06-04T18:09:35.169Z,25.10
2018-06-04T18:25:04.422Z,25.10
2018-06-04T18:27:33.021Z,24.50
2018-06-04T18:30:01.620Z,24.40
2018-06-04T18:32:30.253Z,24.40
2018-06-04T18:34:58.936Z,24.40
2018-06-04T18:37:27.484Z,24.40
2018-06-04T18:39:56.433Z,24.40
2018-06-04T18:42:25.016Z,24.50
2018-06-04T18:44:53.599Z,24.40
2018-06-04T18:47:22.395Z,24.40
2018-06-04T18:49:51.297Z,24.40
2018-06-04T18:52:20.387Z,24.30
2018-06-04T18:54:48.860Z,24.30
2018-06-04T18:57:17.858Z,24.30
2018-06-04T18:59:48.103Z,24.20
2018-06-04T19:02:18.009Z,24.10
2018-06-04T19:04:46.864Z,24.10
2018-06-04T19:07:16.905Z,24.00
2018-06-04T19:09:46.756Z,23.90
2018-06-04T19:12:16.071Z,23.90
2018-06-04T19:14:45.425Z,23.80
2018-06-04T19:17:14.549Z,23.70
2018-06-04T19:19:43.350Z,23.60
2018-06-04T19:22:12.203Z,23.60
2018-06-04T19:24:41.009Z,23.50
2018-06-04T19:27:09.565Z,23.40
2018-06-04T19:29:38.742Z,23.40
2018-06-04T19:32:07.977Z,23.20
2018-06-04T19:34:36.740Z,23.10
2018-06-04T19:37:05.195Z,23.10
2018-06-04T19:39:33.789Z,23.00
2018-06-04T19:42:02.795Z,22.90
2018-06-04T19:44:31.274Z,22.80
2018-06-04T19:47:00.420Z,22.70
2018-06-04T19:49:29.060Z,22.60
2018-06-04T19:51:58.429Z,22.50
2018-06-04T19:54:28.595Z,22.50
2018-06-04T19:56:57.537Z,22.40
2018-06-04T19:59:26.645Z,22.30
2018-06-04T20:01:55.568Z,22.30
2018-06-04T20:04:24.106Z,22.20
2018-06-04T20:06:53.156Z,22.20
2018-06-04T20:09:22.291Z,22.10
2018-06-04T20:11:50.848Z,22.00
2018-06-04T20:14:19.674Z,22.00
2018-06-04T20:16:48.152Z,21.90
2018-06-04T20:19:16.991Z,21.90
2018-06-04T20:21:45.573Z,21.80
2018-06-04T20:24:14.711Z,21.70
2018-06-04T20:26:43.877Z,21.70
2018-06-04T20:29:12.313Z,21.60
2018-06-04T20:31:40.834Z,21.60
2018-06-04T20:34:10.247Z,21.50
2018-06-04T20:36:38.868Z,21.50
2018-06-04T20:39:09.592Z,21.50
2018-06-04T20:41:39.147Z,21.40
2018-06-04T20:44:08.777Z,21.40
2018-06-04T20:46:38.545Z,21.30
2018-06-04T20:49:07.033Z,21.30
2018-06-04T20:51:35.581Z,21.20
2018-06-04T20:54:04.766Z,21.20
2018-06-04T20:56:33.355Z,21.10
2018-06-04T20:59:03.646Z,21.00
2018-06-04T21:01:32.117Z,21.00
2018-06-04T21:04:01.193Z,20.90
2018-06-04T21:06:29.646Z,20.90
2018-06-04T21:08:59.231Z,20.80
2018-06-04T21:11:27.887Z,20.70
2018-06-04T21:16:25.878Z,20.60
2018-06-04T21:18:54.484Z,20.50
2018-06-04T21:21:23.386Z,20.50
2018-06-04T21:23:51.847Z,20.40
2018-06-04T21:26:20.665Z,20.40
2018-06-04T21:28:49.158Z,20.30
2018-06-04T21:31:17.664Z,20.20
2018-06-04T21:36:14.344Z,20.10
2018-06-04T21:38:42.946Z,20.10
2018-06-04T21:41:11.552Z,20.00
2018-06-04T21:43:40.990Z,19.90
2018-06-04T21:48:37.748Z,19.90
2018-06-04T21:51:06.225Z,19.80
2018-06-04T21:53:35.026Z,19.80
2018-06-04T21:56:03.635Z,19.80
2018-06-04T21:58:32.335Z,19.70
2018-06-04T22:01:01.299Z,19.70
2018-06-04T22:03:29.931Z,19.70
2018-06-04T22:05:58.761Z,19.60
2018-06-04T22:08:28.036Z,19.60
2018-06-04T22:10:56.450Z,19.50
2018-06-04T22:13:24.908Z,19.50
2018-06-04T22:15:53.396Z,19.50
2018-06-04T22:31:22.181Z,19.50
2018-06-04T22:33:50.668Z,18.80
2018-06-04T22:36:19.088Z,18.80
2018-06-04T22:38:47.878Z,18.80
2018-06-04T22:41:16.807Z,18.80
2018-06-04T22:43:45.713Z,18.80
2018-06-04T22:46:14.817Z,18.80
2018-06-04T22:48:43.291Z,18.70
2018-06-04T22:51:12.133Z,18.70
2018-06-04T22:53:42.094Z,18.70
2018-06-04T22:56:10.566Z,18.70
2018-06-04T22:58:38.990Z,18.60
2018-06-04T23:01:07.819Z,18.60
2018-06-04T23:03:36.321Z,18.60
2018-06-04T23:06:05.565Z,18.50
2018-06-04T23:08:34.006Z,18.50
2018-06-04T23:11:03.160Z,18.50
2018-06-04T23:13:31.636Z,18.40
2018-06-04T23:16:00.755Z,18.40
2018-06-04T23:18:30.068Z,18.40
2018-06-04T23:20:58.749Z,18.30
2018-06-04T23:23:28.979Z,18.20
2018-06-04T23:26:01.530Z,18.20
2018-06-04T23:28:30.349Z,18.10
2018-06-04T23:30:59.127Z,18.10
2018-06-04T23:33:28.551Z,18.10
2018-06-04T23:35:57.323Z,18.00
2018-06-04T23:38:25.876Z,18.00
2018-06-04T23:40:54.543Z,17.90
2018-06-04T23:43:24.608Z,17.90
2018-06-04T23:45:54.293Z,17.80
2018-06-04T23:48:22.749Z,17.80
2018-06-04T23:50:51.511Z,17.80
2018-06-04T23:53:20.613Z,17.70
2018-06-04T23:55:49.437Z,17.70
